createdAt,value
2022-08-22T00:00:20.724Z,18.79
2022-08-22T00:02:45.362Z,20.29
2022-08-22T00:02:54.995Z,18.91
2022-08-22T00:05:55.516Z,18.75
2022-08-22T00:08:33.405Z,18.78
2022-08-22T00:11:33.223Z,18.81
2022-08-22T00:14:09.254Z,18.81
2022-08-22T00:17:11.632Z,18.81
2022-08-22T00:20:00.786Z,18.80
2022-08-22T00:22:48.348Z,18.79
2022-08-22T00:25:33.839Z,18.76
2022-08-22T00:28:06.260Z,18.74
2022-08-22T00:31:05.997Z,18.71
2022-08-22T00:33:58.902Z,18.67
2022-08-22T00:36:43.694Z,18.64
2022-08-22T00:39:45.279Z,18.62
2022-08-22T00:42:52.374Z,18.60
2022-08-22T00:45:59.580Z,18.57
2022-08-22T00:49:10.038Z,18.56
2022-08-22T00:51:50.997Z,18.55
2022-08-22T00:54:45.084Z,18.54
2022-08-22T00:57:40.886Z,18.49
2022-08-22T01:00:22.198Z,18.46
2022-08-22T01:03:28.869Z,18.47
2022-08-22T01:06:07.174Z,18.46
2022-08-22T01:08:38.490Z,18.45
2022-08-22T01:11:18.406Z,18.47
2022-08-22T01:13:55.663Z,18.47
2022-08-22T01:16:36.114Z,18.47
2022-08-22T01:19:10.199Z,18.49
2022-08-22T01:22:16.802Z,18.49
2022-08-22T01:25:26.111Z,18.50
2022-08-22T01:28:04.080Z,18.52
2022-08-22T01:30:52.798Z,18.53
2022-08-22T01:33:39.870Z,18.52
2022-08-22T01:36:23.923Z,18.51
2022-08-22T01:39:18.672Z,18.49
2022-08-22T01:42:24.597Z,18.48
2022-08-22T01:45:23.378Z,18.46
2022-08-22T01:47:59.922Z,18.46
2022-08-22T01:50:41.988Z,18.45
2022-08-22T01:53:26.123Z,18.46
2022-08-22T01:56:19.656Z,18.47
2022-08-22T01:59:01.858Z,18.44
2022-08-22T02:02:01.837Z,18.35
2022-08-22T02:04:54.411Z,18.27
2022-08-22T02:07:31.932Z,18.24
2022-08-22T02:10:25.343Z,18.24
2022-08-22T02:13:28.974Z,18.22
2022-08-22T02:16:15.085Z,18.21
2022-08-22T02:19:12.098Z,18.19
2022-08-22T02:22:18.317Z,18.17
2022-08-22T02:25:08.763Z,18.15
2022-08-22T02:27:47.008Z,18.11
2022-08-22T02:30:20.411Z,18.09
2022-08-22T02:33:13.479Z,18.08
2022-08-22T02:36:00.525Z,18.03
2022-08-22T02:38:39.086Z,18.00
2022-08-22T02:41:29.083Z,18.00
2022-08-22T02:44:17.736Z,17.98
2022-08-22T02:47:04.032Z,17.96
2022-08-22T02:49:54.509Z,17.99
2022-08-22T02:52:35.564Z,18.00
2022-08-22T02:55:28.881Z,18.00
2022-08-22T02:58:06.531Z,18.00
2022-08-22T03:00:49.865Z,18.03
2022-08-22T03:03:32.193Z,18.02
2022-08-22T03:06:29.375Z,17.95
2022-08-22T03:09:15.944Z,17.97
2022-08-22T03:11:49.569Z,17.94
2022-08-22T03:14:38.983Z,17.97
2022-08-22T03:17:18.415Z,17.99
2022-08-22T03:20:13.186Z,17.98
2022-08-22T03:23:05.836Z,17.93
2022-08-22T03:25:57.002Z,17.94
2022-08-22T03:28:37.621Z,17.92
2022-08-22T03:31:23.276Z,17.88
2022-08-22T03:34:22.694Z,17.83
2022-08-22T03:37:07.181Z,17.79
2022-08-22T03:40:21.363Z,17.79
2022-08-22T03:43:02.126Z,17.78
2022-08-22T03:46:18.489Z,17.77
2022-08-22T03:49:02.173Z,17.75
2022-08-22T03:51:51.426Z,17.76
2022-08-22T03:54:54.621Z,17.72
2022-08-22T03:57:42.119Z,17.65
2022-08-22T04:00:20.437Z,17.63
2022-08-22T04:03:18.845Z,17.62
2022-08-22T04:06:02.911Z,17.64
2022-08-22T04:08:43.924Z,17.67
2022-08-22T04:11:42.943Z,17.72
2022-08-22T04:14:32.575Z,17.81
2022-08-22T04:17:41.755Z,17.90
2022-08-22T04:20:38.489Z,17.98
2022-08-22T04:23:41.059Z,18.02
2022-08-22T04:26:21.745Z,18.04
2022-08-22T04:29:17.142Z,18.06
2022-08-22T04:32:00.988Z,18.11
2022-08-22T04:34:38.479Z,18.11
2022-08-22T04:37:33.209Z,18.13
2022-08-22T04:40:32.006Z,18.19
2022-08-22T04:43:38.846Z,18.22
2022-08-22T04:46:24.176Z,18.20
2022-08-22T04:49:08.450Z,18.22
2022-08-22T04:51:54.342Z,18.30
2022-08-22T04:54:43.951Z,18.34
2022-08-22T04:57:25.699Z,18.44
2022-08-22T05:00:01.956Z,18.52
2022-08-22T05:02:31.375Z,18.55
2022-08-22T05:05:13.394Z,18.61
2022-08-22T05:08:03.001Z,18.62
2022-08-22T05:10:38.738Z,18.63
2022-08-22T05:13:32.882Z,18.55
2022-08-22T05:16:06.363Z,18.54
2022-08-22T05:18:43.110Z,18.52
2022-08-22T05:21:13.919Z,18.52
2022-08-22T05:23:48.685Z,18.47
2022-08-22T05:26:19.567Z,18.39
2022-08-22T05:28:53.490Z,18.41
2022-08-22T05:31:27.709Z,18.45
2022-08-22T05:34:04.874Z,18.52
2022-08-22T05:36:40.269Z,18.58
2022-08-22T05:39:21.724Z,18.53
2022-08-22T05:41:56.028Z,18.56
2022-08-22T05:44:34.947Z,18.67
2022-08-22T05:47:24.011Z,18.77
2022-08-22T05:49:55.674Z,18.78
2022-08-22T05:53:02.416Z,18.74
2022-08-22T05:56:02.117Z,18.81
2022-08-22T05:58:39.734Z,18.93
2022-08-22T06:01:20.223Z,18.96
2022-08-22T06:03:57.482Z,19.04
2022-08-22T06:06:29.075Z,19.09
2022-08-22T06:09:07.510Z,19.17
2022-08-22T06:11:38.971Z,19.31
2022-08-22T06:14:15.326Z,19.48
2022-08-22T06:17:00.149Z,19.86
2022-08-22T06:19:28.846Z,20.16
2022-08-22T06:21:58.078Z,20.29
2022-08-22T06:24:28.302Z,20.53
2022-08-22T06:27:05.224Z,20.55
2022-08-22T06:29:58.326Z,20.42
2022-08-22T06:32:58.299Z,20.31
2022-08-22T06:35:50.773Z,20.32
2022-08-22T06:38:20.644Z,20.50
2022-08-22T06:40:54.443Z,20.59
2022-08-22T06:43:24.879Z,20.58
2022-08-22T06:45:53.773Z,20.63
2022-08-22T06:48:24.694Z,20.79
2022-08-22T06:50:58.773Z,20.92
2022-08-22T06:53:51.222Z,20.98
2022-08-22T06:56:27.157Z,21.12
2022-08-22T06:59:00.045Z,21.20
2022-08-22T07:01:35.273Z,21.41
2022-08-22T07:04:09.317Z,21.51
2022-08-22T07:06:39.524Z,21.58
2022-08-22T07:09:34.976Z,21.54
2022-08-22T07:12:11.156Z,22.00
2022-08-22T07:14:45.527Z,22.25
2022-08-22T07:17:30.079Z,22.15
2022-08-22T07:20:17.460Z,22.25
2022-08-22T07:22:56.295Z,22.30
2022-08-22T07:25:25.605Z,22.35
2022-08-22T07:28:36.658Z,22.55
2022-08-22T07:31:21.574Z,22.71
2022-08-22T07:33:57.091Z,22.81
2022-08-22T07:36:40.771Z,22.96
2022-08-22T07:39:24.918Z,23.23
2022-08-22T07:42:14.934Z,23.07
2022-08-22T07:45:04.528Z,23.17
2022-08-22T07:48:22.623Z,23.43
2022-08-22T07:51:08.907Z,23.56
2022-08-22T07:53:45.493Z,23.62
2022-08-22T07:56:23.421Z,23.95
2022-08-22T07:59:12.706Z,24.10
2022-08-22T08:01:57.207Z,24.20
2022-08-22T08:04:40.393Z,24.29
2022-08-22T08:07:14.619Z,24.35
2022-08-22T08:10:04.609Z,24.47
2022-08-22T08:12:40.523Z,24.66
2022-08-22T08:15:15.615Z,24.90
2022-08-22T08:17:47.636Z,24.79
2022-08-22T08:20:18.302Z,24.72
2022-08-22T08:22:48.290Z,24.83
2022-08-22T08:25:21.888Z,24.97
2022-08-22T08:28:10.695Z,24.81
2022-08-22T08:30:54.120Z,24.96
2022-08-22T08:33:27.002Z,25.16
2022-08-22T08:36:19.678Z,25.25
2022-08-22T08:39:35.329Z,25.27
2022-08-22T08:42:16.512Z,25.25
2022-08-22T08:45:03.606Z,25.11
2022-08-22T08:47:35.075Z,25.00
2022-08-22T08:50:27.257Z,24.98
2022-08-22T08:53:17.089Z,24.90
2022-08-22T08:55:57.938Z,24.84
2022-08-22T08:58:47.119Z,24.74
2022-08-22T09:01:27.776Z,24.64
2022-08-22T09:04:15.670Z,24.46
2022-08-22T09:07:21.726Z,24.31
2022-08-22T09:10:11.976Z,24.32
2022-08-22T09:13:12.332Z,24.41
2022-08-22T09:16:25.463Z,24.59
2022-08-22T09:18:56.767Z,24.83
2022-08-22T09:21:59.192Z,24.89
2022-08-22T09:24:39.843Z,24.81
2022-08-22T09:27:35.509Z,24.70
2022-08-22T09:30:16.885Z,24.55
2022-08-22T09:33:12.357Z,24.38
2022-08-22T09:36:05.188Z,24.23
2022-08-22T09:38:34.861Z,24.26
2022-08-22T09:41:06.200Z,24.29
2022-08-22T09:43:45.722Z,24.31
2022-08-22T09:46:31.530Z,24.56
2022-08-22T09:49:18.299Z,25.02
2022-08-22T09:52:05.273Z,25.51
2022-08-22T09:54:55.035Z,25.97
2022-08-22T09:57:42.543Z,26.38
2022-08-22T10:00:54.488Z,26.72
2022-08-22T10:03:46.093Z,26.92
2022-08-22T10:06:18.774Z,26.86
2022-08-22T10:08:50.816Z,27.13
2022-08-22T10:11:42.288Z,27.19
2022-08-22T10:14:22.377Z,27.02
2022-08-22T10:16:53.891Z,26.88
2022-08-22T10:19:40.605Z,26.79
2022-08-22T10:22:33.414Z,26.72
2022-08-22T10:25:25.174Z,26.37
2022-08-22T10:28:17.304Z,26.23
2022-08-22T10:30:52.109Z,26.35
2022-08-22T10:33:29.240Z,26.36
2022-08-22T10:36:13.646Z,26.28
2022-08-22T10:38:58.476Z,26.43
2022-08-22T10:41:45.505Z,26.44
2022-08-22T10:44:52.219Z,26.54
2022-08-22T10:47:29.946Z,26.93
2022-08-22T10:50:16.082Z,27.34
2022-08-22T10:52:51.659Z,27.73
2022-08-22T10:55:28.756Z,27.96
2022-08-22T10:58:22.450Z,28.01
2022-08-22T11:01:00.078Z,27.95
2022-08-22T11:03:34.311Z,27.72
2022-08-22T11:06:12.759Z,27.62
2022-08-22T11:09:00.356Z,27.84
2022-08-22T11:11:44.015Z,27.97
2022-08-22T11:14:46.031Z,28.21
2022-08-22T11:17:27.536Z,28.74
2022-08-22T11:20:49.996Z,28.92
2022-08-22T11:23:40.897Z,29.32
2022-08-22T11:26:15.675Z,29.75
2022-08-22T11:29:13.784Z,30.00
2022-08-22T11:32:05.856Z,30.10
2022-08-22T11:34:50.360Z,30.39
2022-08-22T11:37:18.725Z,30.65
2022-08-22T11:40:13.641Z,30.84
2022-08-22T11:42:53.914Z,30.90
2022-08-22T11:45:28.297Z,30.84
2022-08-22T11:48:21.383Z,30.94
2022-08-22T11:51:13.149Z,31.39
2022-08-22T11:53:59.006Z,31.38
2022-08-22T11:56:45.113Z,31.42
2022-08-22T11:59:33.192Z,31.35
2022-08-22T12:02:42.655Z,31.46
2022-08-22T12:05:30.484Z,31.78
2022-08-22T12:08:34.113Z,31.77
2022-08-22T12:11:18.352Z,31.51
2022-08-22T12:14:04.164Z,31.48
2022-08-22T12:16:55.568Z,31.44
2022-08-22T12:19:33.091Z,31.33
2022-08-22T12:22:15.668Z,31.38
2022-08-22T12:24:54.324Z,31.34
2022-08-22T12:27:50.700Z,31.50
2022-08-22T12:30:28.826Z,31.24
2022-08-22T12:33:26.770Z,30.80
2022-08-22T12:36:04.846Z,30.54
2022-08-22T12:39:26.831Z,30.43
2022-08-22T12:42:14.006Z,30.47
2022-08-22T12:45:08.614Z,30.63
2022-08-22T12:48:08.412Z,30.88
2022-08-22T12:50:47.921Z,31.10
2022-08-22T12:53:50.138Z,31.11
2022-08-22T12:56:33.194Z,30.92
2022-08-22T12:59:13.154Z,30.57
2022-08-22T13:01:48.644Z,30.41
2022-08-22T13:04:33.889Z,30.52
2022-08-22T13:07:07.879Z,30.61
2022-08-22T13:09:46.391Z,30.59
2022-08-22T13:12:29.203Z,30.30
2022-08-22T13:15:20.807Z,30.26
2022-08-22T13:17:52.201Z,30.30
2022-08-22T13:20:35.707Z,30.22
2022-08-22T13:23:14.164Z,30.22
2022-08-22T13:26:07.966Z,30.45
2022-08-22T13:29:27.417Z,30.57
2022-08-22T13:32:02.215Z,30.67
2022-08-22T13:34:48.374Z,30.77
2022-08-22T13:37:24.601Z,30.98
2022-08-22T13:39:58.933Z,31.05
2022-08-22T13:42:31.319Z,30.88
2022-08-22T13:45:11.211Z,30.94
2022-08-22T13:47:49.296Z,30.78
2022-08-22T13:50:22.736Z,30.84
2022-08-22T13:53:01.772Z,30.82
2022-08-22T13:55:38.414Z,30.53
2022-08-22T13:58:32.785Z,30.37
2022-08-22T14:01:16.296Z,30.26
2022-08-22T14:04:28.304Z,30.20
2022-08-22T14:07:20.086Z,29.79
2022-08-22T14:10:03.190Z,29.79
2022-08-22T14:12:49.961Z,29.77
2022-08-22T14:15:25.591Z,29.53
2022-08-22T14:18:03.351Z,29.45
2022-08-22T14:20:33.802Z,29.45
2022-08-22T14:23:29.518Z,29.66
2022-08-22T14:25:58.294Z,29.78
2022-08-22T14:28:33.886Z,29.89
2022-08-22T14:31:02.549Z,30.03
2022-08-22T14:33:40.610Z,30.12
2022-08-22T14:36:37.475Z,30.09
2022-08-22T14:39:12.331Z,30.06
2022-08-22T14:41:59.381Z,30.24
2022-08-22T14:44:37.856Z,30.29
2022-08-22T14:47:32.410Z,30.24
2022-08-22T14:50:29.231Z,30.29
2022-08-22T14:53:11.050Z,30.39
2022-08-22T14:55:43.115Z,30.52
2022-08-22T14:58:18.650Z,30.55
2022-08-22T15:00:58.512Z,30.37
2022-08-22T15:03:35.079Z,29.95
2022-08-22T15:06:29.654Z,29.51
2022-08-22T15:09:00.955Z,29.06
2022-08-22T15:11:38.133Z,28.73
2022-08-22T15:14:21.628Z,28.47
2022-08-22T15:16:54.627Z,28.25
2022-08-22T15:19:27.825Z,27.95
2022-08-22T15:22:27.769Z,27.71
2022-08-22T15:25:01.937Z,27.50
2022-08-22T15:27:33.296Z,27.35
2022-08-22T15:30:07.840Z,27.25
2022-08-22T15:32:49.227Z,27.13
2022-08-22T15:35:31.438Z,27.03
2022-08-22T15:38:05.302Z,26.83
2022-08-22T15:40:42.351Z,26.67
2022-08-22T15:43:18.933Z,26.54
2022-08-22T15:45:51.806Z,26.47
2022-08-22T15:48:33.840Z,26.39
2022-08-22T15:51:13.626Z,26.28
2022-08-22T15:53:45.010Z,26.20
2022-08-22T15:56:13.253Z,26.17
2022-08-22T15:58:52.091Z,26.13
2022-08-22T16:01:24.301Z,26.09
2022-08-22T16:04:06.711Z,26.00
2022-08-22T16:06:43.022Z,25.89
2022-08-22T16:09:35.912Z,25.83
2022-08-22T16:12:11.778Z,25.73
2022-08-22T16:14:45.781Z,25.65
2022-08-22T16:17:26.283Z,25.58
2022-08-22T16:20:19.791Z,25.52
2022-08-22T16:23:09.115Z,25.46
2022-08-22T16:25:46.847Z,25.43
2022-08-22T16:28:41.419Z,25.36
2022-08-22T16:31:31.496Z,25.24
2022-08-22T16:34:25.084Z,25.13
2022-08-22T16:37:03.691Z,25.07
2022-08-22T16:39:44.671Z,25.02
2022-08-22T16:42:19.687Z,24.96
2022-08-22T16:44:50.228Z,24.87
2022-08-22T16:47:30.698Z,24.79
2022-08-22T16:50:31.385Z,24.74
2022-08-22T16:53:04.888Z,24.65
2022-08-22T16:55:36.165Z,24.57
2022-08-22T16:58:17.929Z,24.51
2022-08-22T17:00:58.676Z,24.49
2022-08-22T17:03:52.069Z,24.41
2022-08-22T17:06:32.504Z,24.33
2022-08-22T17:09:09.711Z,24.30
2022-08-22T17:12:15.746Z,24.28
2022-08-22T17:15:14.366Z,24.23
2022-08-22T17:18:11.549Z,24.18
2022-08-22T17:21:01.643Z,24.14
2022-08-22T17:24:32.338Z,24.09
2022-08-22T17:27:24.407Z,24.04
2022-08-22T17:30:20.303Z,24.01
2022-08-22T17:33:04.654Z,23.91
2022-08-22T17:35:50.480Z,23.80
2022-08-22T17:38:43.449Z,23.75
2022-08-22T17:41:35.474Z,23.65
2022-08-22T17:44:10.041Z,23.35
2022-08-22T17:47:08.646Z,23.03
2022-08-22T17:49:45.078Z,22.40
2022-08-22T17:52:35.153Z,21.96
2022-08-22T17:55:19.600Z,21.76
2022-08-22T17:57:48.276Z,21.60
2022-08-22T18:00:26.131Z,21.50
2022-08-22T18:03:16.201Z,21.42
2022-08-22T18:05:53.241Z,21.32
2022-08-22T18:11:55.682Z,21.32
2022-08-22T18:14:40.838Z,21.35
2022-08-22T18:17:28.195Z,21.34
2022-08-22T18:20:08.006Z,21.23
2022-08-22T18:22:39.180Z,21.10
2022-08-22T18:25:19.439Z,20.99
2022-08-22T18:28:23.398Z,20.91
2022-08-22T18:30:58.124Z,20.82
2022-08-22T18:33:50.687Z,20.74
2022-08-22T18:36:30.984Z,20.59
2022-08-22T18:39:07.105Z,20.61
2022-08-22T18:41:45.767Z,20.59
2022-08-22T18:44:29.084Z,20.55
2022-08-22T18:47:02.391Z,20.53
2022-08-22T18:49:43.589Z,20.51
2022-08-22T18:52:19.658Z,20.42
2022-08-22T18:55:03.498Z,20.32
2022-08-22T18:58:12.992Z,20.26
2022-08-22T19:01:07.868Z,20.18
2022-08-22T19:03:49.691Z,20.14
2022-08-22T19:07:08.246Z,20.13
2022-08-22T19:09:48.863Z,20.15
2022-08-22T19:12:36.438Z,20.16
2022-08-22T19:15:23.215Z,20.16
2022-08-22T19:18:10.226Z,20.13
2022-08-22T19:20:59.122Z,20.09
2022-08-22T19:23:37.514Z,20.04
2022-08-22T19:26:32.554Z,19.99
2022-08-22T19:29:18.671Z,19.93
2022-08-22T19:32:05.881Z,19.86
2022-08-22T19:34:47.692Z,19.82
2022-08-22T19:37:30.972Z,19.77
2022-08-22T19:40:07.524Z,19.74
2022-08-22T19:42:39.214Z,19.70
2022-08-22T19:45:18.077Z,19.67
2022-08-22T19:47:57.613Z,19.64
2022-08-22T19:50:33.155Z,19.62
2022-08-22T19:53:27.957Z,19.60
2022-08-22T19:56:33.016Z,19.57
2022-08-22T19:59:11.566Z,19.52
2022-08-22T20:01:51.585Z,19.48
2022-08-22T20:04:28.498Z,19.46
2022-08-22T20:07:17.771Z,19.45
2022-08-22T20:10:00.700Z,19.42
2022-08-22T20:12:28.691Z,19.39
2022-08-22T20:14:57.824Z,19.38
2022-08-22T20:17:25.992Z,19.36
2022-08-22T20:20:17.745Z,19.34
2022-08-22T20:23:16.115Z,19.30
2022-08-22T20:25:50.467Z,19.29
2022-08-22T20:28:41.453Z,19.29
2022-08-22T20:31:27.422Z,19.28
2022-08-22T20:34:03.892Z,19.26
2022-08-22T20:36:33.168Z,19.23
2022-08-22T20:39:07.584Z,19.21
2022-08-22T20:41:41.440Z,19.18
2022-08-22T20:44:18.857Z,19.17
2022-08-22T20:46:53.182Z,19.16
2022-08-22T20:49:47.378Z,19.09
2022-08-22T20:52:36.275Z,19.02
2022-08-22T20:55:19.030Z,18.99
2022-08-22T20:57:55.014Z,18.97
2022-08-22T21:00:32.319Z,18.95
2022-08-22T21:03:21.113Z,18.94
2022-08-22T21:05:49.272Z,18.93
2022-08-22T21:08:26.511Z,18.90
2022-08-22T21:11:20.094Z,18.84
2022-08-22T21:13:49.435Z,18.78
2022-08-22T21:16:39.183Z,18.76
2022-08-22T21:19:19.269Z,18.73
2022-08-22T21:21:48.121Z,18.72
2022-08-22T21:24:16.598Z,18.71
2022-08-22T21:26:47.807Z,18.69
2022-08-22T21:29:16.031Z,18.68
2022-08-22T21:31:59.092Z,18.67
2022-08-22T21:34:37.761Z,18.64
2022-08-22T21:37:35.461Z,18.62
2022-08-22T21:40:18.052Z,18.59
2022-08-22T21:43:07.815Z,18.56
2022-08-22T21:45:39.431Z,18.51
2022-08-22T21:48:33.616Z,18.45
2022-08-22T21:51:42.271Z,18.41
2022-08-22T21:54:26.201Z,18.34
2022-08-22T21:56:58.551Z,18.30
2022-08-22T21:59:51.141Z,18.27
2022-08-22T22:02:31.391Z,18.26
2022-08-22T22:05:08.519Z,18.26
2022-08-22T22:07:40.323Z,18.25
2022-08-22T22:10:11.972Z,18.24
2022-08-22T22:12:42.975Z,18.22
2022-08-22T22:15:21.002Z,18.21
2022-08-22T22:17:50.195Z,18.21
2022-08-22T22:20:21.248Z,18.21
2022-08-22T22:22:51.044Z,18.22
2022-08-22T22:25:40.853Z,18.22
2022-08-22T22:28:21.632Z,18.20
2022-08-22T22:30:53.489Z,18.19
2022-08-22T22:33:27.347Z,18.19
2022-08-22T22:35:59.227Z,18.18
2022-08-22T22:38:27.487Z,18.16
2022-08-22T22:40:55.690Z,18.14
2022-08-22T22:43:23.881Z,18.13
2022-08-22T22:45:52.500Z,18.12
2022-08-22T22:48:23.977Z,18.10
2022-08-22T22:50:54.301Z,18.08
2022-08-22T22:53:33.871Z,18.07
2022-08-22T22:56:09.972Z,18.07
2022-08-22T22:58:39.963Z,18.05
2022-08-22T23:01:15.530Z,18.03
2022-08-22T23:03:45.127Z,18.00
2022-08-22T23:06:19.688Z,17.98
2022-08-22T23:08:49.259Z,17.96
2022-08-22T23:11:21.385Z,17.95
2022-08-22T23:13:50.066Z,17.91
2022-08-22T23:16:24.957Z,17.89
2022-08-22T23:18:53.880Z,17.85
2022-08-22T23:21:28.429Z,17.82
2022-08-22T23:23:58.986Z,17.80
2022-08-22T23:26:28.577Z,17.77
2022-08-22T23:28:58.143Z,17.73
2022-08-22T23:31:32.951Z,17.71
2022-08-22T23:34:04.987Z,17.69
2022-08-22T23:36:34.326Z,17.69
2022-08-22T23:39:05.585Z,17.69
2022-08-22T23:41:34.518Z,17.69
2022-08-22T23:44:06.021Z,17.69
2022-08-22T23:46:34.282Z,17.68
2022-08-22T23:49:05.698Z,17.67
2022-08-22T23:51:35.283Z,17.65
2022-08-22T23:54:04.873Z,17.62
2022-08-22T23:56:36.874Z,17.59
2022-08-22T23:59:07.788Z,17.55
